Time;durP1;ratioP1;P1;durP2;ratioP2;P2;SDS_P1;SDS_P2;PMS_P1;PMS_P2;Temp;Humidity;BMP_temperature;BMP_pressure;BME280_temperature;BME280_humidity;BME280_pressure;Samples;Min_cycle;Max_cycle;Signal;HPM_P1;HPM_P2
2023/05/30 00:01:06;;;;;;;7.93;2.60;;;17.90;59.50;;;;;;4205913;28;20063;-48
2023/05/30 00:03:49;;;;;;;8.15;2.83;;;17.90;58.60;;;;;;4208389;28;20050;-48
2023/05/30 00:06:31;;;;;;;8.85;3.47;;;17.90;58.80;;;;;;4208625;28;20055;-49
2023/05/30 00:09:12;;;;;;;7.50;2.95;;;17.90;59.60;;;;;;4202112;28;20051;-48
2023/05/30 00:11:54;;;;;;;9.90;3.05;;;17.90;59.00;;;;;;4195142;28;20121;-48
2023/05/30 00:14:37;;;;;;;13.50;2.63;;;17.90;59.10;;;;;;4195466;28;20125;-47
2023/05/30 00:17:20;;;;;;;6.50;2.70;;;17.90;59.00;;;;;;4208057;28;20070;-47
2023/05/30 00:20:01;;;;;;;8.38;2.80;;;17.90;59.10;;;;;;4199383;28;20059;-49
2023/05/30 00:22:42;;;;;;;12.13;3.60;;;17.90;59.30;;;;;;4195243;28;20411;-50
2023/05/30 00:25:23;;;;;;;11.18;3.20;;;17.90;59.30;;;;;;4193892;28;20057;-48
2023/05/30 00:28:07;;;;;;;10.32;2.75;;;17.90;59.30;;;;;;4195243;28;20047;-48
2023/05/30 00:30:49;;;;;;;10.00;3.13;;;17.90;59.20;;;;;;4194513;28;20052;-50
2023/05/30 00:33:30;;;;;;;9.75;2.90;;;17.90;59.20;;;;;;4188237;28;20056;-49
2023/05/30 00:36:11;;;;;;;8.55;2.25;;;17.90;59.20;;;;;;4178260;28;20735;-46
2023/05/30 00:38:52;;;;;;;6.53;2.70;;;17.90;59.10;;;;;;4178211;28;20182;-47
2023/05/30 00:41:32;;;;;;;12.48;2.92;;;17.90;58.90;;;;;;4202150;28;20070;-45
2023/05/30 00:44:13;;;;;;;6.63;2.20;;;17.90;58.70;;;;;;4211567;28;20730;-48
2023/05/30 00:46:56;;;;;;;;;;;17.90;58.70;;;;;;4212139;28;20043;-48
2023/05/30 00:49:38;;;;;;;9.43;2.60;;;17.90;58.70;;;;;;4198004;28;19931;-47
2023/05/30 00:52:20;;;;;;;9.40;3.22;;;17.80;58.80;;;;;;4193369;28;20213;-48
2023/05/30 00:55:03;;;;;;;7.47;2.33;;;17.80;58.70;;;;;;4194494;28;20051;-48
2023/05/30 00:57:44;;;;;;;5.30;2.55;;;17.80;58.60;;;;;;4194680;28;20105;-45
2023/05/30 01:00:26;;;;;;;8.05;2.85;;;17.80;58.50;;;;;;4193451;28;20047;-47
2023/05/30 01:03:09;;;;;;;9.23;2.35;;;17.80;58.60;;;;;;4194613;28;20059;-50
2023/05/30 01:05:50;;;;;;;6.03;2.50;;;17.80;58.50;;;;;;4188181;28;20183;-48
2023/05/30 01:08:33;;;;;;;13.75;2.63;;;17.80;58.30;;;;;;4177201;28;20128;-46
2023/05/30 01:11:23;;;;;;;9.02;2.58;;;17.80;58.60;;;;;;4176873;28;20052;-47
2023/05/30 01:14:12;;;;;;;9.32;2.58;;;17.80;58.90;;;;;;4187754;28;20060;-49
2023/05/30 01:17:01;;;;;;;7.57;2.70;;;17.80;59.00;;;;;;4194446;28;20055;-47
2023/05/30 01:20:07;;;;;;;8.55;2.42;;;17.70;59.00;;;;;;4194302;28;20067;-47
2023/05/30 01:23:01;;;;;;;8.23;3.10;;;17.80;59.00;;;;;;4191107;28;20526;-50
2023/05/30 01:26:00;;;;;;;7.22;3.20;;;17.80;58.80;;;;;;4194031;28;20411;-48
2023/05/30 01:28:45;;;;;;;7.93;2.60;;;17.80;59.00;;;;;;4204881;28;20912;-46
2023/05/30 01:31:27;;;;;;;8.00;2.85;;;17.70;59.10;;;;;;4210533;28;20050;-51
2023/05/30 01:34:08;;;;;;;7.05;3.03;;;17.70;58.80;;;;;;4210532;28;20055;-48
2023/05/30 01:36:51;;;;;;;11.10;3.55;;;17.70;58.80;;;;;;4204055;28;20125;-47
2023/05/30 01:39:32;;;;;;;6.40;2.45;;;17.70;58.80;;;;;;4205395;28;20494;-44
2023/05/30 01:42:19;;;;;;;8.67;2.67;;;17.70;59.10;;;;;;4177230;28;20175;-44
2023/05/30 01:45:09;;;;;;;8.60;2.95;;;17.70;59.30;;;;;;4177077;28;20800;-45
2023/05/30 01:47:58;;;;;;;7.15;2.45;;;17.70;59.10;;;;;;4188114;28;20174;-46
2023/05/30 01:50:44;;;;;;;8.90;2.45;;;17.70;58.90;;;;;;4192238;28;20102;-45
2023/05/30 01:53:31;;;;;;;7.65;2.95;;;17.70;58.90;;;;;;4192242;28;20063;-47
2023/05/30 01:56:14;;;;;;;10.57;2.85;;;17.80;59.00;;;;;;4194153;28;20076;-46
2023/05/30 01:58:55;;;;;;;8.15;2.60;;;17.70;59.10;;;;;;4177018;28;20099;-45
2023/05/30 02:01:40;;;;;;;7.18;2.90;;;17.70;59.10;;;;;;4175594;28;20056;-49
2023/05/30 02:04:21;;;;;;;6.60;2.75;;;17.70;59.10;;;;;;4175490;28;20126;-49
2023/05/30 02:07:03;;;;;;;10.23;2.80;;;17.70;59.20;;;;;;4175695;28;20048;-51
2023/05/30 02:09:45;;;;;;;7.38;2.72;;;17.70;59.20;;;;;;4178451;28;20097;-49
2023/05/30 02:12:25;;;;;;;10.23;3.10;;;17.70;59.20;;;;;;4203848;28;20055;-48
2023/05/30 02:15:07;;;;;;;10.97;2.70;;;17.70;59.20;;;;;;4208797;28;20047;-46
2023/05/30 02:17:50;;;;;;;8.55;2.60;;;17.70;59.10;;;;;;4195179;28;20121;-46
2023/05/30 02:20:31;;;;;;;9.50;2.95;;;17.70;59.10;;;;;;4209856;28;20055;-49
2023/05/30 02:23:12;;;;;;;;;;;17.70;59.40;;;;;;4208906;28;20063;-48
2023/05/30 02:25:53;;;;;;;8.97;2.57;;;17.70;59.40;;;;;;4205800;28;20426;-50
2023/05/30 02:28:34;;;;;;;10.88;3.28;;;17.70;59.50;;;;;;4204908;28;20059;-46
2023/05/30 02:31:15;;;;;;;9.10;2.97;;;17.70;59.30;;;;;;4209768;28;20461;-50
2023/05/30 02:33:57;;;;;;;13.27;3.85;;;17.60;59.30;;;;;;4196550;28;20097;-48
2023/05/30 02:36:39;;;;;;;7.15;3.00;;;17.70;59.30;;;;;;4208042;28;20192;-60
2023/05/30 02:39:22;;;;;;;6.60;2.88;;;17.60;59.40;;;;;;4208418;28;20055;-62
2023/05/30 02:42:05;;;;;;;8.52;2.88;;;17.60;59.40;;;;;;4205622;28;20137;-61
2023/05/30 02:44:48;;;;;;;8.88;3.13;;;17.60;59.50;;;;;;4192949;28;20043;-61
2023/05/30 02:47:29;;;;;;;15.82;3.40;;;17.60;59.50;;;;;;4191782;28;20052;-61
2023/05/30 02:50:11;;;;;;;13.70;4.00;;;17.60;59.60;;;;;;4191161;28;20047;-61
2023/05/30 02:52:53;;;;;;;8.57;3.15;;;17.60;59.70;;;;;;4199555;28;20155;-62
2023/05/30 02:55:34;;;;;;;11.90;3.17;;;17.60;59.70;;;;;;4208066;28;20108;-60
2023/05/30 02:58:36;;;;;;;14.40;3.45;;;17.60;59.80;;;;;;4199277;28;20059;-61
2023/05/30 03:01:28;;;;;;;14.55;3.35;;;17.60;59.80;;;;;;4201236;28;20124;-61
2023/05/30 03:04:10;;;;;;;10.00;3.17;;;17.60;59.80;;;;;;4196077;28;20102;-58
2023/05/30 03:06:56;;;;;;;10.13;3.35;;;17.60;59.90;;;;;;4196482;28;20046;-60
2023/05/30 03:09:41;;;;;;;14.25;3.80;;;17.60;60.00;;;;;;4207791;28;20055;-60
2023/05/30 03:12:22;;;;;;;12.68;3.70;;;17.60;60.00;;;;;;4207980;28;20048;-59
2023/05/30 03:15:05;;;;;;;12.80;4.03;;;17.60;60.10;;;;;;4194292;28;20415;-53
2023/05/30 03:17:48;;;;;;;8.18;3.28;;;17.60;60.20;;;;;;4185993;28;20059;-55
2023/05/30 03:20:31;;;;;;;11.13;2.85;;;17.60;60.20;;;;;;4209136;28;20058;-56
2023/05/30 03:23:14;;;;;;;11.05;3.50;;;17.60;60.20;;;;;;4207849;28;20398;-57
2023/05/30 03:25:55;;;;;;;12.15;2.88;;;17.60;60.40;;;;;;4197272;28;20048;-57
2023/05/30 03:28:37;;;;;;;9.27;3.13;;;17.60;60.30;;;;;;4174575;28;20115;-56
2023/05/30 03:31:44;;;;;;;9.57;3.00;;;17.60;60.30;;;;;;4191033;28;20051;-55
2023/05/30 03:34:26;;;;;;;10.80;3.50;;;17.60;60.40;;;;;;4192267;28;20052;-56
2023/05/30 03:37:07;;;;;;;12.85;2.92;;;17.60;60.50;;;;;;4191166;28;20047;-56
2023/05/30 03:39:49;;;;;;;13.60;3.58;;;17.60;60.50;;;;;;4192067;28;20058;-56
2023/05/30 03:42:30;;;;;;;10.98;3.33;;;17.60;60.60;;;;;;4190678;28;20067;-57
2023/05/30 03:45:11;;;;;;;11.52;3.42;;;17.60;60.70;;;;;;4190234;28;20394;-56
2023/05/30 03:47:52;;;;;;;;;;;17.60;60.70;;;;;;4190774;28;20178;-54
2023/05/30 03:50:33;;;;;;;10.32;2.60;;;17.60;60.80;;;;;;4194608;28;19927;-56
2023/05/30 03:53:14;;;;;;;14.38;3.80;;;17.60;60.80;;;;;;4208652;28;20078;-55
2023/05/30 03:55:56;;;;;;;13.80;4.15;;;17.60;61.00;;;;;;4209038;28;20088;-54
2023/05/30 03:58:37;;;;;;;6.50;2.88;;;17.60;62.00;;;;;;4204400;28;20047;-55
2023/05/30 04:01:18;;;;;;;16.90;3.70;;;17.60;61.10;;;;;;4174417;28;20059;-55
2023/05/30 04:03:59;;;;;;;11.18;3.58;;;17.60;61.20;;;;;;4191552;28;20059;-55
2023/05/30 04:06:41;;;;;;;;;;;17.60;61.20;;;;;;4180729;28;20048;-55
2023/05/30 04:09:21;;;;;;;11.32;3.88;;;17.60;61.20;;;;;;4198976;28;20333;-56
2023/05/30 04:12:05;;;;;;;11.25;2.63;;;17.60;61.40;;;;;;4192197;28;20052;-53
2023/05/30 04:14:46;;;;;;;9.38;3.40;;;17.60;61.50;;;;;;4190923;28;20055;-55
2023/05/30 04:17:28;;;;;;;6.85;3.20;;;17.60;61.40;;;;;;4190732;28;20047;-55
2023/05/30 04:20:10;;;;;;;12.30;3.30;;;17.60;61.40;;;;;;4173931;28;20044;-56
2023/05/30 04:22:52;;;;;;;11.73;3.63;;;17.60;61.50;;;;;;4175973;28;20044;-55
2023/05/30 04:25:34;;;;;;;12.23;3.70;;;17.60;61.50;;;;;;4206857;28;20063;-54
2023/05/30 04:28:19;;;;;;;13.25;3.20;;;17.60;61.80;;;;;;4174999;28;20060;-54
2023/05/30 04:31:00;;;;;;;11.73;3.33;;;17.60;61.90;;;;;;4173781;28;20056;-56
2023/05/30 04:33:59;;;;;;;7.78;3.38;;;17.60;62.00;;;;;;4173342;28;20094;-53
2023/05/30 04:36:42;;;;;;;9.40;3.45;;;17.60;62.10;;;;;;4190692;28;20056;-54
2023/05/30 04:39:22;;;;;;;;;;;17.60;62.10;;;;;;4191168;28;20067;-56
2023/05/30 04:42:04;;;;;;;5.97;2.43;;;17.50;62.10;;;;;;4186810;28;20370;-55
2023/05/30 04:44:47;;;;;;;10.82;3.15;;;17.50;62.10;;;;;;4201947;28;20056;-55
2023/05/30 04:47:33;;;;;;;11.88;3.17;;;17.50;62.10;;;;;;4190707;28;20052;-55
2023/05/30 04:50:15;;;;;;;12.63;3.10;;;17.50;62.30;;;;;;4190064;28;20502;-56
2023/05/30 04:52:56;;;;;;;11.27;3.75;;;17.50;62.50;;;;;;4191530;28;20052;-56
2023/05/30 04:55:39;;;;;;;7.80;3.17;;;17.50;62.50;;;;;;4191876;28;20066;-57
2023/05/30 04:58:20;;;;;;;7.20;2.70;;;17.50;62.60;;;;;;4202690;28;20063;-57
2023/05/30 05:01:09;;;;;;;;;;;17.50;62.80;;;;;;4193319;28;20170;-57
2023/05/30 05:03:50;;;;;;;10.15;2.97;;;17.50;62.80;;;;;;4194131;28;19928;-56
2023/05/30 05:06:32;;;;;;;;;;;17.50;62.80;;;;;;4194139;28;20178;-60
2023/05/30 05:09:13;;;;;;;11.50;3.37;;;17.50;62.90;;;;;;4194219;28;20054;-60
2023/05/30 05:11:54;;;;;;;11.98;3.30;;;17.50;62.80;;;;;;4194021;28;20412;-60
2023/05/30 05:14:35;;;;;;;8.80;3.38;;;17.50;63.10;;;;;;4195261;28;20181;-60
2023/05/30 05:17:18;;;;;;;6.32;2.90;;;17.50;63.30;;;;;;4194342;28;20054;-60
2023/05/30 05:20:00;;;;;;;5.50;3.15;;;17.40;63.40;;;;;;4193655;28;20125;-60
2023/05/30 05:22:43;;;;;;;12.85;3.70;;;17.50;63.50;;;;;;4194056;28;20123;-60
2023/05/30 05:25:24;;;;;;;15.02;3.42;;;17.50;63.50;;;;;;4193929;28;20692;-60
2023/05/30 05:28:06;;;;;;;9.38;2.67;;;17.40;63.70;;;;;;4193683;28;20074;-55
2023/05/30 05:30:48;;;;;;;6.63;2.83;;;17.40;63.70;;;;;;4200956;28;20066;-56
2023/05/30 05:33:30;;;;;;;4.78;2.22;;;17.50;63.90;;;;;;4209487;28;20059;-59
2023/05/30 05:36:15;;;;;;;7.93;2.65;;;17.50;64.20;;;;;;4209952;28;20088;-57
2023/05/30 05:38:56;;;;;;;6.20;2.83;;;17.40;64.20;;;;;;4203737;28;20515;-60
2023/05/30 05:41:36;;;;;;;8.17;3.03;;;17.40;64.20;;;;;;4193900;28;20122;-60
2023/05/30 05:44:17;;;;;;;7.43;2.47;;;17.50;64.40;;;;;;4194150;28;20436;-60
2023/05/30 05:47:04;;;;;;;6.13;2.42;;;17.50;64.80;;;;;;4194349;28;20427;-59
2023/05/30 05:49:47;;;;;;;9.52;3.17;;;17.50;64.80;;;;;;4204035;28;20055;-60
2023/05/30 05:52:28;;;;;;;5.22;2.53;;;17.50;64.80;;;;;;4210151;28;20067;-59
2023/05/30 05:55:09;;;;;;;9.45;3.08;;;17.50;64.80;;;;;;4199475;28;20071;-62
2023/05/30 05:57:51;;;;;;;9.18;2.90;;;17.50;64.60;;;;;;4193391;28;20047;-62
2023/05/30 06:00:35;;;;;;;3.22;2.38;;;17.50;64.60;;;;;;4192392;28;20048;-62
2023/05/30 06:03:16;;;;;;;8.27;2.35;;;17.50;64.80;;;;;;4193302;28;20581;-62
2023/05/30 06:05:58;;;;;;;6.50;2.70;;;17.50;65.90;;;;;;4209713;28;20434;-62
2023/05/30 06:08:40;;;;;;;7.25;2.75;;;17.50;65.30;;;;;;4206165;28;20175;-62
2023/05/30 06:11:21;;;;;;;9.73;2.80;;;17.50;65.40;;;;;;4192562;28;20110;-62
2023/05/30 06:14:02;;;;;;;11.85;3.40;;;17.50;65.60;;;;;;4193026;28;20059;-62
2023/05/30 06:16:43;;;;;;;8.27;2.85;;;17.40;65.70;;;;;;4193539;28;20177;-62
2023/05/30 06:19:24;;;;;;;6.68;2.85;;;17.40;65.90;;;;;;4193048;28;20055;-62
2023/05/30 06:22:07;;;;;;;4.15;2.45;;;17.40;66.10;;;;;;4200775;28;20058;-62
2023/05/30 06:24:49;;;;;;;6.40;2.22;;;17.40;66.20;;;;;;4211476;28;20058;-62
2023/05/30 06:27:31;;;;;;;5.50;2.33;;;17.40;66.30;;;;;;4195927;28;20406;-62
2023/05/30 06:30:12;;;;;;;5.53;1.83;;;17.40;66.30;;;;;;4192478;28;20597;-62
2023/05/30 06:32:54;;;;;;;4.38;2.30;;;17.40;66.40;;;;;;4166719;28;20126;-62
2023/05/30 06:35:37;;;;;;;;;;;17.50;66.50;;;;;;4186565;28;20051;-62
2023/05/30 06:38:20;;;;;;;3.95;1.88;;;17.40;66.40;;;;;;4190926;28;19928;-63
2023/05/30 06:41:01;;;;;;;5.55;2.30;;;17.40;66.60;;;;;;4192391;28;20495;-62
2023/05/30 06:43:44;;;;;;;2.33;1.70;;;17.40;66.80;;;;;;4192836;28;20051;-61
2023/05/30 06:46:26;;;;;;;4.10;2.00;;;17.40;67.10;;;;;;4192828;28;20063;-61
2023/05/30 06:49:07;;;;;;;3.45;1.80;;;17.40;67.20;;;;;;4192588;28;20117;-62
2023/05/30 06:51:48;;;;;;;2.55;1.73;;;17.40;67.50;;;;;;4196340;28;20529;-62
2023/05/30 06:54:31;;;;;;;3.85;2.22;;;17.40;67.70;;;;;;4207311;28;20090;-62
2023/05/30 06:57:12;;;;;;;4.63;1.92;;;17.40;68.70;;;;;;4197476;28;20048;-62
2023/05/30 06:59:53;;;;;;;6.68;2.17;;;17.40;68.00;;;;;;4175629;28;20075;-61
2023/05/30 07:02:34;;;;;;;4.53;2.28;;;17.40;68.90;;;;;;4181119;28;20553;-62
2023/05/30 07:05:15;;;;;;;3.17;1.73;;;17.40;69.30;;;;;;4195650;28;20059;-62
2023/05/30 07:07:56;;;;;;;3.03;1.42;;;17.40;68.40;;;;;;4198090;28;20110;-62
2023/05/30 07:10:39;;;;;;;3.33;1.50;;;17.40;68.40;;;;;;4192844;28;20133;-62
2023/05/30 07:13:20;;;;;;;4.05;1.98;;;17.40;68.50;;;;;;4192496;28;20055;-62
2023/05/30 07:16:01;;;;;;;3.38;1.98;;;17.40;68.50;;;;;;4191368;28;20051;-61
2023/05/30 07:18:42;;;;;;;3.22;1.80;;;17.40;68.60;;;;;;4192694;28;20118;-62
2023/05/30 07:21:28;;;;;;;1.63;1.30;;;17.40;68.60;;;;;;4194072;28;20070;-62
2023/05/30 07:24:08;;;;;;;2.97;1.60;;;17.40;68.60;;;;;;4190553;28;20142;-62
2023/05/30 07:26:51;;;;;;;3.90;1.80;;;17.40;68.50;;;;;;4175786;28;20427;-62
2023/05/30 07:29:32;;;;;;;2.83;1.90;;;17.40;68.60;;;;;;4183225;28;20067;-62
2023/05/30 07:32:14;;;;;;;1.92;1.40;;;17.40;68.50;;;;;;4192035;28;20178;-62
2023/05/30 07:34:56;;;;;;;;;;;17.40;68.60;;;;;;4192449;28;20051;-62
2023/05/30 07:37:37;;;;;;;2.78;1.77;;;17.40;68.60;;;;;;4203604;28;19969;-61
2023/05/30 07:40:18;;;;;;;3.92;1.63;;;17.40;68.80;;;;;;4207938;28;20109;-61
2023/05/30 07:43:01;;;;;;;3.30;1.50;;;17.40;68.90;;;;;;4207997;28;20050;-61
2023/05/30 07:45:42;;;;;;;2.30;1.40;;;17.40;69.00;;;;;;4197130;28;20453;-60
2023/05/30 07:48:22;;;;;;;2.97;2.00;;;17.40;69.00;;;;;;4191850;28;20059;-60
2023/05/30 07:51:04;;;;;;;1.65;1.20;;;17.40;69.20;;;;;;4192927;28;20560;-60
2023/05/30 07:53:45;;;;;;;2.05;1.58;;;17.40;69.10;;;;;;4187739;28;20137;-60
2023/05/30 07:56:26;;;;;;;2.38;1.17;;;17.40;69.50;;;;;;4185199;28;20529;-60
2023/05/30 07:59:08;;;;;;;1.95;1.20;;;17.40;69.60;;;;;;4189698;28;20133;-59
2023/05/30 08:01:49;;;;;;;2.05;1.30;;;17.40;70.00;;;;;;4179769;28;20064;-55
2023/05/30 08:04:30;;;;;;;1.20;1.10;;;17.40;70.30;;;;;;4207959;28;20051;-60
2023/05/30 08:07:11;;;;;;;3.28;1.25;;;17.40;70.50;;;;;;4208300;28;20047;-60
2023/05/30 08:09:52;;;;;;;2.72;0.90;;;17.50;70.70;;;;;;4177444;28;20051;-59
2023/05/30 08:12:33;;;;;;;1.05;0.88;;;17.50;71.10;;;;;;4191331;28;20052;-59
2023/05/30 08:15:15;;;;;;;0.80;0.80;;;17.50;70.90;;;;;;4191593;28;20111;-60
2023/05/30 08:17:56;;;;;;;1.55;1.10;;;17.50;70.40;;;;;;4190962;28;20498;-59
2023/05/30 08:20:38;;;;;;;3.97;2.28;;;17.60;70.30;;;;;;4191565;28;20051;-60
2023/05/30 08:23:18;;;;;;;0.75;0.73;;;17.60;70.20;;;;;;4191523;28;20499;-59
2023/05/30 08:25:59;;;;;;;0.80;0.70;;;17.60;70.10;;;;;;4190466;28;20047;-60
2023/05/30 08:28:41;;;;;;;2.58;0.75;;;17.60;69.60;;;;;;4191565;28;20495;-59
2023/05/30 08:31:23;;;;;;;0.73;0.70;;;17.60;70.50;;;;;;4192016;28;20091;-59
2023/05/30 08:34:05;;;;;;;0.55;0.55;;;17.60;69.40;;;;;;4194725;28;20503;-60
2023/05/30 08:36:45;;;;;;;1.00;0.93;;;17.60;69.10;;;;;;4194413;28;20064;-60
2023/05/30 08:39:26;;;;;;;2.60;0.73;;;17.60;69.30;;;;;;4193730;28;20067;-60
2023/05/30 08:42:12;;;;;;;0.80;0.70;;;17.60;69.30;;;;;;4194098;28;20059;-60
2023/05/30 08:44:54;;;;;;;0.63;0.63;;;17.60;69.30;;;;;;4198263;28;20158;-60
2023/05/30 08:47:37;;;;;;;1.65;0.70;;;17.60;69.70;;;;;;4200145;28;20063;-59
2023/05/30 08:50:20;;;;;;;0.63;0.63;;;17.60;70.30;;;;;;4206861;28;20051;-59
2023/05/30 08:53:07;;;;;;;0.52;0.40;;;17.60;69.90;;;;;;4206436;28;20511;-60
2023/05/30 08:55:55;;;;;;;0.30;0.30;;;17.60;70.30;;;;;;4193976;28;20117;-60
2023/05/30 08:58:43;;;;;;;0.50;0.50;;;17.70;70.60;;;;;;4202153;28;20670;-60
2023/05/30 09:01:25;;;;;;;0.57;0.45;;;17.70;70.30;;;;;;4193312;28;20059;-60
2023/05/30 09:04:09;;;;;;;0.60;0.60;;;17.70;69.90;;;;;;4190580;28;20058;-60
2023/05/30 09:06:52;;;;;;;0.47;0.47;;;17.70;69.70;;;;;;4194370;28;20059;-60
2023/05/30 09:09:34;;;;;;;1.10;0.82;;;17.70;69.60;;;;;;4193062;28;20051;-60
2023/05/30 09:12:16;;;;;;;1.45;0.73;;;17.70;69.10;;;;;;4171861;28;20125;-60
2023/05/30 09:15:01;;;;;;;0.70;0.70;;;17.70;68.90;;;;;;4190553;28;20059;-60
2023/05/30 09:17:45;;;;;;;3.25;0.95;;;17.80;68.70;;;;;;4187410;28;20059;-60
2023/05/30 09:20:30;;;;;;;2.08;0.93;;;17.80;68.60;;;;;;4193781;28;20055;-60
2023/05/30 09:23:11;;;;;;;1.27;0.65;;;17.80;68.40;;;;;;4193369;28;20595;-60
2023/05/30 09:25:55;;;;;;;2.00;1.25;;;17.80;68.20;;;;;;4194367;28;20174;-61
2023/05/30 09:28:36;;;;;;;0.70;0.70;;;17.80;68.00;;;;;;4166444;28;20107;-60
2023/05/30 09:31:17;;;;;;;0.77;0.75;;;17.80;67.90;;;;;;4177400;28;20068;-61
2023/05/30 09:33:58;;;;;;;;;;;17.80;67.90;;;;;;4194263;28;20055;-60
2023/05/30 09:36:40;;;;;;;1.88;0.70;;;17.80;67.80;;;;;;4194758;28;20394;-60
2023/05/30 09:39:21;;;;;;;1.25;1.20;;;17.80;67.80;;;;;;4193957;28;20056;-61
2023/05/30 09:42:07;;;;;;;0.68;0.68;;;17.80;68.00;;;;;;4194033;28;20442;-61
2023/05/30 09:44:54;;;;;;;0.80;0.80;;;17.80;68.10;;;;;;4189421;28;20051;-61
2023/05/30 09:47:39;;;;;;;2.25;0.60;;;17.80;67.90;;;;;;4196317;28;20048;-61
2023/05/30 09:50:21;;;;;;;0.73;0.73;;;17.80;67.50;;;;;;4196168;28;20055;-61
2023/05/30 09:53:04;;;;;;;1.00;0.80;;;17.80;67.40;;;;;;4200342;28;20047;-61
2023/05/30 09:55:45;;;;;;;0.93;0.93;;;17.80;67.50;;;;;;4191798;28;20059;-61
2023/05/30 09:58:26;;;;;;;0.60;0.60;;;17.80;67.50;;;;;;4176328;28;20044;-61
2023/05/30 10:01:17;;;;;;;1.88;1.02;;;17.80;67.40;;;;;;4177019;28;20595;-61
2023/05/30 10:03:58;;;;;;;1.00;1.00;;;17.80;67.50;;;;;;4179161;28;20063;-61
2023/05/30 10:06:41;;;;;;;1.60;0.82;;;17.80;67.40;;;;;;4168795;28;20106;-61
2023/05/30 10:09:25;;;;;;;1.42;0.82;;;17.80;67.40;;;;;;4176013;28;20126;-61
2023/05/30 10:12:07;;;;;;;1.45;1.00;;;17.80;67.20;;;;;;4173745;28;20106;-61
2023/05/30 10:14:48;;;;;;;1.65;0.95;;;17.80;67.10;;;;;;4178158;28;20087;-61
2023/05/30 10:17:32;;;;;;;1.58;0.98;;;17.80;67.00;;;;;;4180171;28;20055;-61
2023/05/30 10:20:15;;;;;;;2.42;1.17;;;17.80;66.80;;;;;;4192323;28;20106;-61
2023/05/30 10:22:57;;;;;;;0.90;0.90;;;17.80;66.90;;;;;;4191711;28;20042;-61
2023/05/30 10:25:46;;;;;;;1.17;1.02;;;17.80;66.90;;;;;;4208255;28;20047;-61
2023/05/30 10:28:31;;;;;;;2.25;1.13;;;17.80;67.70;;;;;;4209749;28;20050;-61
2023/05/30 10:31:13;;;;;;;1.33;0.90;;;17.80;66.80;;;;;;4193938;28;20121;-61
2023/05/30 10:33:56;;;;;;;1.63;1.10;;;17.80;66.80;;;;;;4192958;28;20051;-60
2023/05/30 10:36:41;;;;;;;0.60;0.60;;;17.80;66.70;;;;;;4197184;28;20056;-61
2023/05/30 10:39:32;;;;;;;1.70;0.85;;;17.80;66.60;;;;;;4176660;28;20122;-61
2023/05/30 10:42:21;;;;;;;0.88;0.88;;;17.80;66.50;;;;;;4176411;28;20117;-61
2023/05/30 10:45:11;;;;;;;1.05;0.93;;;17.80;66.30;;;;;;4199245;28;20054;-61
2023/05/30 10:48:00;;;;;;;1.67;0.80;;;17.80;67.10;;;;;;4209603;28;20055;-61
2023/05/30 10:50:45;;;;;;;1.45;0.90;;;17.80;66.30;;;;;;4191218;28;20055;-61
2023/05/30 10:53:27;;;;;;;0.80;0.80;;;17.80;66.40;;;;;;4182309;28;20501;-61
2023/05/30 10:56:23;;;;;;;;;;;17.80;66.50;;;;;;4199949;28;20051;-61
2023/05/30 10:59:12;;;;;;;1.92;1.08;;;17.90;67.40;;;;;;4187540;28;19930;-61
2023/05/30 11:02:01;;;;;;;1.08;1.08;;;17.80;66.60;;;;;;4192929;28;20395;-61
2023/05/30 11:04:43;;;;;;;1.17;0.93;;;17.80;66.70;;;;;;4192999;28;20060;-61
2023/05/30 11:07:26;;;;;;;1.00;1.00;;;17.90;66.80;;;;;;4191264;28;20074;-61
2023/05/30 11:10:10;;;;;;;0.88;0.88;;;17.90;66.90;;;;;;4201218;28;20090;-61
2023/05/30 11:12:52;;;;;;;0.90;0.90;;;17.90;66.80;;;;;;4197565;28;20055;-64
2023/05/30 11:15:35;;;;;;;2.90;1.00;;;17.80;67.50;;;;;;4189672;28;20055;-64
2023/05/30 11:18:17;;;;;;;0.98;0.80;;;17.90;66.60;;;;;;4207909;28;20054;-64
2023/05/30 11:20:58;;;;;;;1.00;1.00;;;17.90;66.70;;;;;;4199922;28;20055;-64
2023/05/30 11:24:00;;;;;;;2.53;0.93;;;17.90;66.70;;;;;;4202641;28;20143;-64
2023/05/30 11:27:07;;;;;;;0.80;0.80;;;17.90;66.80;;;;;;4188139;28;20043;-64
2023/05/30 11:29:49;;;;;;;1.00;1.00;;;17.90;66.70;;;;;;4191579;28;20063;-64
2023/05/30 11:32:32;;;;;;;1.50;1.05;;;17.90;66.80;;;;;;4173818;28;20110;-64
2023/05/30 11:35:17;;;;;;;0.90;0.90;;;17.90;66.90;;;;;;4173010;28;20190;-61
2023/05/30 11:37:58;;;;;;;10.90;1.10;;;17.90;66.90;;;;;;4180617;28;20546;-61
2023/05/30 11:40:42;;;;;;;1.23;1.13;;;18.00;67.00;;;;;;4174668;28;20118;-61
2023/05/30 11:43:24;;;;;;;0.90;0.90;;;18.00;66.80;;;;;;4184036;28;20059;-61
2023/05/30 11:46:06;;;;;;;1.00;0.88;;;18.00;66.80;;;;;;4173419;28;20060;-61
2023/05/30 11:48:49;;;;;;;1.15;1.02;;;17.90;66.70;;;;;;4151550;28;20126;-61
2023/05/30 11:51:30;;;;;;;1.17;1.08;;;17.90;66.60;;;;;;4176746;28;20085;-61
2023/05/30 11:54:11;;;;;;;0.80;0.80;;;18.00;66.50;;;;;;4198235;28;20055;-61
2023/05/30 11:56:54;;;;;;;0.77;0.77;;;18.00;66.40;;;;;;4204875;28;20051;-61
2023/05/30 11:59:41;;;;;;;0.90;0.90;;;18.00;66.40;;;;;;4173912;28;20106;-61
2023/05/30 12:02:26;;;;;;;1.10;1.10;;;18.00;66.40;;;;;;4166954;28;20119;-61
2023/05/30 12:05:11;;;;;;;2.05;0.98;;;18.00;66.40;;;;;;4178485;28;20122;-61
2023/05/30 12:07:53;;;;;;;0.98;0.98;;;18.00;66.50;;;;;;4176202;28;20178;-64
2023/05/30 12:10:35;;;;;;;1.00;1.00;;;18.00;66.50;;;;;;4175216;28;20495;-64
2023/05/30 12:13:19;;;;;;;1.60;1.50;;;18.00;66.50;;;;;;4177273;28;20059;-61
2023/05/30 12:16:01;;;;;;;1.98;1.88;;;18.00;66.50;;;;;;4188883;28;20282;-63
2023/05/30 12:18:42;;;;;;;2.50;2.33;;;18.00;66.50;;;;;;4185497;27;20167;-63
2023/05/30 12:21:24;;;;;;;2.10;1.98;;;18.00;66.50;;;;;;4194745;28;20113;-63
2023/05/30 12:24:09;;;;;;;1.77;1.50;;;18.00;66.50;;;;;;4192595;28;20048;-64
2023/05/30 12:26:53;;;;;;;2.28;1.40;;;18.00;66.50;;;;;;4192682;28;20131;-64
2023/05/30 12:29:36;;;;;;;4.05;1.80;;;18.00;66.50;;;;;;4193323;28;20097;-64
2023/05/30 12:32:26;;;;;;;1.35;1.25;;;18.00;66.50;;;;;;4192320;28;20066;-64
2023/05/30 12:35:11;;;;;;;1.58;1.48;;;18.00;66.50;;;;;;4191805;28;20063;-64
2023/05/30 12:37:57;;;;;;;1.75;1.65;;;18.00;66.50;;;;;;4204268;28;20051;-65
2023/05/30 12:40:46;;;;;;;1.60;1.50;;;18.10;66.60;;;;;;4196836;28;20055;-65
2023/05/30 12:43:29;;;;;;;1.60;1.50;;;18.10;66.60;;;;;;4193515;28;20118;-65
2023/05/30 12:46:12;;;;;;;;;;;18.10;66.40;;;;;;4190898;28;20072;-65
2023/05/30 12:48:55;;;;;;;3.80;2.38;;;18.10;66.20;;;;;;4175754;28;20008;-65
2023/05/30 12:51:36;;;;;;;2.08;1.98;;;18.20;66.30;;;;;;4191954;28;20071;-64
2023/05/30 12:54:25;;;;;;;1.45;1.45;;;18.10;66.20;;;;;;4193923;28;20060;-65
2023/05/30 12:57:06;;;;;;;1.17;1.10;;;18.10;66.00;;;;;;4192760;28;20051;-64
2023/05/30 12:59:48;;;;;;;1.45;1.00;;;18.20;66.20;;;;;;4194218;28;20197;-64
2023/05/30 13:02:29;;;;;;;1.20;1.10;;;18.20;65.90;;;;;;4193057;28;20052;-65
2023/05/30 13:05:11;;;;;;;1.27;1.10;;;18.20;65.90;;;;;;4194284;28;20043;-65
2023/05/30 13:07:52;;;;;;;1.02;1.02;;;18.30;66.00;;;;;;4193292;28;20399;-65
2023/05/30 13:10:34;;;;;;;0.93;0.93;;;18.30;65.80;;;;;;4181805;28;20059;-65
2023/05/30 13:13:16;;;;;;;1.75;0.70;;;18.30;65.60;;;;;;4194400;28;20079;-59
2023/05/30 13:15:57;;;;;;;1.00;0.90;;;18.30;65.10;;;;;;4193578;28;20055;-65
2023/05/30 13:18:39;;;;;;;0.90;0.90;;;18.30;65.00;;;;;;4192605;28;20064;-66
2023/05/30 13:21:22;;;;;;;0.82;0.82;;;18.40;65.20;;;;;;4180440;28;20063;-65
2023/05/30 13:24:02;;;;;;;1.00;0.88;;;18.40;65.30;;;;;;4194073;28;20047;-66
2023/05/30 13:26:45;;;;;;;1.00;1.00;;;18.40;65.30;;;;;;4192680;28;20067;-65
2023/05/30 13:29:26;;;;;;;1.10;1.10;;;18.40;65.50;;;;;;4193078;28;20082;-65
2023/05/30 13:32:08;;;;;;;1.80;1.70;;;18.40;65.20;;;;;;4185485;28;20055;-65
2023/05/30 13:34:50;;;;;;;1.70;1.60;;;18.40;65.50;;;;;;4176860;28;20403;-65
2023/05/30 13:37:31;;;;;;;1.55;1.52;;;18.40;65.70;;;;;;4176787;28;20079;-67
2023/05/30 13:40:12;;;;;;;2.35;1.63;;;18.40;65.60;;;;;;4188449;28;20521;-65
2023/05/30 13:42:55;;;;;;;1.92;1.83;;;18.40;65.60;;;;;;4192125;28;20055;-65
2023/05/30 13:45:36;;;;;;;1.20;1.10;;;18.50;65.50;;;;;;4192277;28;20532;-65
2023/05/30 13:48:20;;;;;;;1.90;1.50;;;18.40;65.30;;;;;;4193614;28;20059;-65
2023/05/30 13:51:01;;;;;;;1.30;1.30;;;18.40;65.10;;;;;;4193609;28;20048;-65
2023/05/30 13:53:42;;;;;;;1.90;1.60;;;18.40;65.20;;;;;;4192145;28;20403;-65
2023/05/30 13:56:27;;;;;;;1.95;1.55;;;18.40;65.40;;;;;;4193444;28;20048;-65
2023/05/30 13:59:09;;;;;;;1.30;1.30;;;18.40;65.60;;;;;;4191920;28;20055;-65
2023/05/30 14:01:50;;;;;;;1.00;1.00;;;18.40;65.80;;;;;;4193335;28;20568;-65
2023/05/30 14:04:31;;;;;;;1.00;1.00;;;18.40;66.60;;;;;;4208390;28;20185;-65
2023/05/30 14:07:13;;;;;;;1.13;1.13;;;18.40;66.50;;;;;;4209533;28;20098;-65
2023/05/30 14:09:53;;;;;;;0.73;0.73;;;18.40;65.60;;;;;;4193309;28;20067;-65